createdAt,value
2023-03-29T00:00:50.957Z,37.38
2023-03-29T00:01:50.958Z,37.41
2023-03-29T00:02:51.024Z,37.43
2023-03-29T00:03:51.064Z,37.38
2023-03-29T00:04:51.730Z,37.36
2023-03-29T00:05:51.033Z,37.36
2023-03-29T00:06:50.989Z,37.34
2023-03-29T00:07:50.996Z,37.32
2023-03-29T00:08:51.014Z,37.33
2023-03-29T00:09:51.052Z,37.31
2023-03-29T00:10:51.005Z,37.33
2023-03-29T00:11:51.019Z,37.35
2023-03-29T00:12:51.016Z,37.32
2023-03-29T00:13:51.024Z,37.29
2023-03-29T00:14:51.047Z,37.29
2023-03-29T00:15:51.038Z,37.31
2023-03-29T00:16:51.169Z,37.36
2023-03-29T00:17:51.088Z,37.34
2023-03-29T00:18:51.135Z,37.33
2023-03-29T00:19:51.072Z,37.33
2023-03-29T00:20:51.078Z,37.32
2023-03-29T00:21:51.096Z,37.29
2023-03-29T00:22:51.092Z,37.24
2023-03-29T00:23:51.153Z,37.23
2023-03-29T00:24:51.113Z,37.17
2023-03-29T00:25:51.157Z,37.15
2023-03-29T00:26:51.158Z,37.09
2023-03-29T00:27:51.173Z,37.02
2023-03-29T00:28:51.166Z,37.04
2023-03-29T00:29:51.162Z,37.07
2023-03-29T00:30:51.166Z,37.08
2023-03-29T00:31:51.341Z,37.09
2023-03-29T00:32:51.393Z,37.09
2023-03-29T00:33:51.201Z,37.02
2023-03-29T00:34:51.223Z,37.04
2023-03-29T00:35:51.267Z,37.05
2023-03-29T00:36:51.240Z,37.07
2023-03-29T00:37:51.240Z,37.10
2023-03-29T00:38:51.249Z,37.08
2023-03-29T00:39:51.263Z,37.07
2023-03-29T00:40:51.287Z,37.06
2023-03-29T00:41:51.311Z,37.05
2023-03-29T00:42:51.292Z,37.06
2023-03-29T00:43:51.320Z,37.11
2023-03-29T00:44:51.315Z,37.10
2023-03-29T00:45:51.402Z,37.09
2023-03-29T00:46:51.504Z,37.09
2023-03-29T00:47:51.452Z,37.11
2023-03-29T00:48:51.371Z,37.08
2023-03-29T00:49:51.426Z,37.05
2023-03-29T00:50:51.397Z,37.09
2023-03-29T00:51:51.410Z,37.12
2023-03-29T00:52:51.418Z,37.10
2023-03-29T00:53:51.424Z,37.12
2023-03-29T00:54:51.560Z,37.10
2023-03-29T00:55:51.457Z,37.10
2023-03-29T00:56:51.539Z,37.08
2023-03-29T00:57:52.298Z,37.07
2023-03-29T00:58:51.488Z,37.09
2023-03-29T00:59:51.505Z,37.11
2023-03-29T01:00:51.498Z,37.10
2023-03-29T01:01:51.583Z,37.09
2023-03-29T01:02:51.654Z,37.10
2023-03-29T01:03:51.596Z,37.13
2023-03-29T01:04:51.556Z,37.12
2023-03-29T01:05:51.548Z,37.13
2023-03-29T01:06:51.587Z,37.12
2023-03-29T01:07:51.575Z,37.10
2023-03-29T01:08:51.589Z,37.12
2023-03-29T01:09:51.590Z,37.09
2023-03-29T01:10:51.612Z,37.10
2023-03-29T01:11:51.626Z,37.12
2023-03-29T01:12:51.628Z,37.13
2023-03-29T01:13:51.661Z,37.12
2023-03-29T01:14:51.647Z,37.13
2023-03-29T01:15:51.671Z,37.09
2023-03-29T01:16:52.418Z,37.09
2023-03-29T01:17:51.712Z,37.08
2023-03-29T01:18:51.702Z,37.09
2023-03-29T01:19:52.264Z,37.10
2023-03-29T01:20:51.718Z,37.08
2023-03-29T01:21:51.758Z,37.10
2023-03-29T01:22:52.267Z,37.09
2023-03-29T01:23:51.766Z,37.07
2023-03-29T01:24:51.780Z,37.08
2023-03-29T01:25:51.792Z,37.10
2023-03-29T01:26:51.818Z,37.10
2023-03-29T01:27:51.881Z,37.08
2023-03-29T01:28:51.823Z,37.06
2023-03-29T01:29:51.841Z,37.06
2023-03-29T01:30:51.849Z,37.08
2023-03-29T01:31:51.906Z,37.07
2023-03-29T01:32:51.931Z,37.08
2023-03-29T01:33:51.893Z,37.06
2023-03-29T01:34:51.891Z,37.00
2023-03-29T01:35:51.935Z,37.03
2023-03-29T01:36:51.918Z,37.02
2023-03-29T01:37:51.934Z,37.03
2023-03-29T01:38:51.950Z,37.01
2023-03-29T01:39:51.969Z,37.03
2023-03-29T01:40:51.975Z,37.00
2023-03-29T01:41:51.990Z,36.99
2023-03-29T01:42:52.006Z,36.98
2023-03-29T01:43:52.027Z,36.97
2023-03-29T01:44:52.029Z,36.95
2023-03-29T01:45:52.070Z,36.97
2023-03-29T01:46:52.059Z,36.97
2023-03-29T01:47:52.161Z,36.96
2023-03-29T01:48:52.103Z,36.95
2023-03-29T01:49:52.099Z,36.97
2023-03-29T01:50:52.109Z,36.97
2023-03-29T01:51:52.778Z,36.95
2023-03-29T01:52:52.145Z,36.95
2023-03-29T01:53:52.784Z,36.94
2023-03-29T01:54:52.167Z,36.94
2023-03-29T01:55:52.188Z,36.91
2023-03-29T01:56:52.346Z,36.92
2023-03-29T01:57:52.229Z,36.90
2023-03-29T01:58:52.244Z,36.91
2023-03-29T01:59:52.259Z,36.87
2023-03-29T02:00:52.288Z,36.84
2023-03-29T02:01:52.435Z,36.82
2023-03-29T02:02:52.412Z,36.78
2023-03-29T02:03:52.372Z,36.79
2023-03-29T02:04:52.357Z,36.76
2023-03-29T02:05:52.379Z,36.77
2023-03-29T02:06:53.349Z,36.74
2023-03-29T02:07:52.415Z,36.77
2023-03-29T02:08:52.458Z,36.78
2023-03-29T02:09:52.494Z,36.74
2023-03-29T02:10:52.469Z,36.74
2023-03-29T02:11:52.576Z,36.75
2023-03-29T02:12:52.527Z,36.72
2023-03-29T02:13:52.604Z,36.73
2023-03-29T02:14:52.555Z,36.66
2023-03-29T02:15:52.622Z,36.62
2023-03-29T02:16:52.602Z,36.65
2023-03-29T02:17:52.726Z,36.67
2023-03-29T02:18:52.625Z,36.71
2023-03-29T02:19:52.647Z,36.66
2023-03-29T02:20:52.650Z,36.66
2023-03-29T02:21:52.673Z,36.67
2023-03-29T02:22:52.693Z,36.67
2023-03-29T02:23:52.705Z,36.66
2023-03-29T02:24:52.719Z,36.66
2023-03-29T02:25:52.733Z,36.65
2023-03-29T02:26:53.293Z,36.63
2023-03-29T02:27:52.778Z,36.64
2023-03-29T02:28:52.794Z,36.65
2023-03-29T02:29:53.789Z,36.67
2023-03-29T02:30:52.848Z,36.65
2023-03-29T02:31:52.852Z,36.65
2023-03-29T02:32:52.871Z,36.68
2023-03-29T02:33:52.882Z,36.67
2023-03-29T02:34:52.893Z,36.64
2023-03-29T02:35:52.950Z,36.65
2023-03-29T02:36:52.944Z,36.66
2023-03-29T02:37:53.785Z,36.67
2023-03-29T02:38:52.981Z,36.67
2023-03-29T02:39:52.992Z,36.66
2023-03-29T02:40:53.005Z,36.66
2023-03-29T02:41:53.016Z,36.65
2023-03-29T02:42:53.035Z,36.60
2023-03-29T02:43:53.046Z,36.58
2023-03-29T02:44:53.061Z,36.55
2023-03-29T02:45:53.065Z,36.52
2023-03-29T02:46:53.126Z,36.54
2023-03-29T02:47:53.191Z,36.50
2023-03-29T02:48:53.135Z,36.51
2023-03-29T02:49:53.210Z,36.52
2023-03-29T02:50:53.176Z,36.52
2023-03-29T02:51:53.192Z,36.50
2023-03-29T02:52:53.209Z,36.48
2023-03-29T02:53:53.243Z,36.47
2023-03-29T02:54:53.245Z,36.50
2023-03-29T02:55:53.272Z,36.51
2023-03-29T02:56:53.353Z,36.53
2023-03-29T02:57:53.310Z,36.52
2023-03-29T02:58:53.347Z,36.52
2023-03-29T02:59:53.341Z,36.52
2023-03-29T03:00:53.370Z,36.50
2023-03-29T03:01:53.449Z,36.50
2023-03-29T03:02:53.471Z,36.50
2023-03-29T03:03:53.578Z,36.50
2023-03-29T03:04:53.457Z,36.48
2023-03-29T03:05:53.481Z,36.47
2023-03-29T03:06:53.519Z,36.48
2023-03-29T03:07:53.534Z,36.47
2023-03-29T03:08:53.564Z,36.47
2023-03-29T03:09:53.596Z,36.47
2023-03-29T03:10:53.602Z,36.48
2023-03-29T03:11:53.627Z,36.46
2023-03-29T03:12:53.659Z,36.47
2023-03-29T03:13:53.673Z,36.48
2023-03-29T03:14:54.298Z,36.47
2023-03-29T03:15:53.738Z,36.47
2023-03-29T03:16:53.733Z,36.48
2023-03-29T03:17:53.838Z,36.46
2023-03-29T03:18:53.780Z,36.49
2023-03-29T03:19:53.793Z,36.48
2023-03-29T03:20:53.802Z,36.44
2023-03-29T03:21:53.832Z,36.43
2023-03-29T03:22:53.853Z,36.42
2023-03-29T03:23:53.859Z,36.40
2023-03-29T03:24:53.869Z,36.45
2023-03-29T03:25:53.896Z,36.42
2023-03-29T03:26:53.927Z,36.43
2023-03-29T03:27:53.931Z,36.44
2023-03-29T03:28:53.963Z,36.44
2023-03-29T03:29:53.977Z,36.42
2023-03-29T03:30:53.992Z,36.36
2023-03-29T03:31:54.429Z,36.38
2023-03-29T03:32:54.042Z,36.38
2023-03-29T03:33:54.056Z,36.33
2023-03-29T03:34:54.076Z,36.35
2023-03-29T03:35:54.122Z,36.37
2023-03-29T03:36:54.105Z,36.38
2023-03-29T03:37:54.138Z,36.35
2023-03-29T03:38:54.156Z,36.34
2023-03-29T03:39:54.176Z,36.36
2023-03-29T03:40:54.217Z,36.36
2023-03-29T03:41:54.227Z,36.34
2023-03-29T03:42:54.239Z,36.37
2023-03-29T03:43:54.271Z,36.37
2023-03-29T03:44:54.291Z,36.33
2023-03-29T03:45:54.332Z,36.33
2023-03-29T03:46:54.316Z,36.36
2023-03-29T03:47:54.366Z,36.33
2023-03-29T03:48:54.361Z,36.30
2023-03-29T03:49:54.380Z,36.32
2023-03-29T03:50:54.414Z,36.29
2023-03-29T03:51:54.440Z,36.27
2023-03-29T03:52:54.479Z,36.31
2023-03-29T03:53:54.507Z,36.33
2023-03-29T03:54:54.531Z,36.32
2023-03-29T03:55:55.309Z,36.32
2023-03-29T03:56:54.631Z,36.32
2023-03-29T03:57:54.634Z,36.33
2023-03-29T03:58:54.656Z,36.29
2023-03-29T03:59:54.689Z,36.31
2023-03-29T04:00:54.713Z,36.31
2023-03-29T04:01:54.805Z,36.31
2023-03-29T04:02:54.806Z,36.29
2023-03-29T04:03:54.867Z,36.30
2023-03-29T04:04:54.815Z,36.32
2023-03-29T04:05:54.855Z,36.30
2023-03-29T04:06:54.878Z,36.29
2023-03-29T04:07:54.908Z,36.30
2023-03-29T04:08:54.950Z,36.32
2023-03-29T04:09:54.960Z,36.31
2023-03-29T04:10:55.004Z,36.31
2023-03-29T04:11:55.034Z,36.33
2023-03-29T04:12:55.067Z,36.31
2023-03-29T04:13:55.096Z,36.33
2023-03-29T04:14:55.131Z,36.30
2023-03-29T04:15:55.236Z,36.29
2023-03-29T04:16:55.196Z,36.29
2023-03-29T04:17:55.315Z,36.30
2023-03-29T04:18:55.258Z,36.32
2023-03-29T04:19:55.274Z,36.31
2023-03-29T04:20:55.314Z,36.28
2023-03-29T04:21:55.340Z,36.31
2023-03-29T04:22:55.821Z,36.27
2023-03-29T04:23:55.469Z,36.28
2023-03-29T04:24:55.416Z,36.28
2023-03-29T04:25:55.435Z,36.27
2023-03-29T04:26:55.462Z,36.22
2023-03-29T04:27:55.491Z,36.23
2023-03-29T04:28:55.524Z,36.22
2023-03-29T04:29:55.551Z,36.20
2023-03-29T04:30:55.595Z,36.19
2023-03-29T04:31:55.597Z,36.22
2023-03-29T04:32:56.442Z,36.19
2023-03-29T04:33:56.749Z,36.17
2023-03-29T04:34:55.665Z,36.15
2023-03-29T04:35:55.697Z,36.12
2023-03-29T04:36:55.709Z,36.10
2023-03-29T04:37:55.707Z,36.08
2023-03-29T04:38:56.333Z,36.10
2023-03-29T04:39:55.718Z,36.18
2023-03-29T04:40:55.723Z,36.17
2023-03-29T04:41:55.766Z,36.16
2023-03-29T04:42:55.761Z,36.14
2023-03-29T04:43:55.774Z,36.13
2023-03-29T04:44:55.809Z,36.14
2023-03-29T04:45:55.890Z,36.12
2023-03-29T04:46:55.795Z,36.13
2023-03-29T04:47:55.822Z,36.16
2023-03-29T04:48:55.821Z,36.13
2023-03-29T04:49:55.832Z,36.13
2023-03-29T04:50:55.850Z,36.12
2023-03-29T04:51:55.863Z,36.08
2023-03-29T04:52:55.878Z,36.06
2023-03-29T04:53:55.883Z,36.09
2023-03-29T04:54:55.903Z,36.11
2023-03-29T04:55:55.916Z,36.09
2023-03-29T04:56:56.026Z,36.11
2023-03-29T04:57:55.935Z,36.11
2023-03-29T04:58:55.945Z,36.12
2023-03-29T04:59:55.959Z,36.09
2023-03-29T05:00:55.973Z,36.12
2023-03-29T05:01:56.001Z,36.12
2023-03-29T05:02:56.081Z,36.10
2023-03-29T05:03:56.122Z,36.11
2023-03-29T05:04:56.014Z,36.10
2023-03-29T05:05:56.030Z,36.10
2023-03-29T05:06:56.039Z,36.09
2023-03-29T05:07:56.086Z,36.10
2023-03-29T05:08:56.077Z,36.10
2023-03-29T05:09:56.084Z,36.11
2023-03-29T05:10:56.345Z,36.12
2023-03-29T05:11:56.113Z,36.12
2023-03-29T05:12:56.155Z,36.10
2023-03-29T05:13:56.152Z,36.10
2023-03-29T05:14:56.171Z,36.08
2023-03-29T05:15:56.172Z,36.06
2023-03-29T05:16:56.183Z,36.07
2023-03-29T05:17:56.256Z,36.07
2023-03-29T05:18:56.194Z,36.04
2023-03-29T05:19:56.272Z,36.07
2023-03-29T05:20:56.229Z,36.28
2023-03-29T05:21:56.237Z,36.34
2023-03-29T05:22:56.254Z,36.47
2023-03-29T05:23:56.265Z,36.85
2023-03-29T05:24:56.268Z,37.12
2023-03-29T05:25:56.292Z,37.23
2023-03-29T05:26:56.322Z,37.74
2023-03-29T05:27:56.306Z,38.06
2023-03-29T05:28:56.319Z,38.38
2023-03-29T05:29:56.349Z,38.93
2023-03-29T05:30:56.328Z,38.93
2023-03-29T05:31:56.394Z,38.68
2023-03-29T05:32:56.362Z,38.70
2023-03-29T05:33:56.342Z,38.62
2023-03-29T05:34:56.366Z,38.73
2023-03-29T05:35:56.394Z,38.85
2023-03-29T05:36:56.361Z,38.82
2023-03-29T05:37:56.417Z,38.91
2023-03-29T05:38:56.362Z,39.07
2023-03-29T05:40:06.107Z,39.27
2023-03-29T05:40:57.361Z,39.34
2023-03-29T05:41:56.360Z,39.40
2023-03-29T05:42:56.362Z,39.56
2023-03-29T05:43:56.369Z,39.54
2023-03-29T05:44:56.376Z,39.73
2023-03-29T05:45:56.482Z,39.89
2023-03-29T05:46:56.367Z,40.08
2023-03-29T05:47:56.417Z,40.15
2023-03-29T05:48:56.357Z,40.37
2023-03-29T05:49:56.354Z,40.28
2023-03-29T05:50:56.367Z,40.43
2023-03-29T05:51:56.387Z,40.68
2023-03-29T05:52:56.402Z,40.88
2023-03-29T05:53:56.446Z,41.01
2023-03-29T05:54:56.581Z,41.20
2023-03-29T05:55:56.544Z,41.19
2023-03-29T05:56:56.555Z,41.47
2023-03-29T05:57:56.576Z,41.50
2023-03-29T05:58:56.597Z,41.71
2023-03-29T05:59:56.629Z,41.84
2023-03-29T06:00:56.703Z,42.06
2023-03-29T06:01:56.740Z,42.17
2023-03-29T06:03:06.499Z,42.32
2023-03-29T06:03:57.787Z,42.38
2023-03-29T06:04:56.842Z,42.71
2023-03-29T06:05:56.670Z,42.87
2023-03-29T06:06:56.642Z,42.92
2023-03-29T06:07:56.757Z,43.00
2023-03-29T06:08:56.622Z,43.06
2023-03-29T06:09:56.617Z,43.15
2023-03-29T06:10:56.601Z,43.22
2023-03-29T06:11:57.284Z,43.30
2023-03-29T06:12:56.588Z,43.49
2023-03-29T06:13:57.582Z,43.50
2023-03-29T06:14:56.561Z,43.71
2023-03-29T06:15:56.559Z,43.79
2023-03-29T06:16:56.607Z,43.90
2023-03-29T06:17:57.570Z,44.03
2023-03-29T06:18:56.522Z,44.07
2023-03-29T06:19:56.508Z,44.12
2023-03-29T06:20:56.501Z,44.24
2023-03-29T06:21:56.490Z,44.98
2023-03-29T06:22:56.468Z,44.78
2023-03-29T06:23:56.461Z,41.27
2023-03-29T06:24:56.452Z,37.63
2023-03-29T06:25:56.459Z,38.20
2023-03-29T06:26:56.462Z,39.09
2023-03-29T06:27:56.465Z,40.01
2023-03-29T06:28:56.474Z,40.15
2023-03-29T06:29:56.471Z,40.48
2023-03-29T06:30:56.693Z,40.51
2023-03-29T06:31:56.478Z,40.77
2023-03-29T06:32:56.493Z,40.47
2023-03-29T06:33:56.493Z,40.60
2023-03-29T06:34:56.480Z,40.71
2023-03-29T06:35:57.416Z,40.56
2023-03-29T06:36:56.550Z,40.98
2023-03-29T06:37:56.721Z,41.07
2023-03-29T06:38:56.681Z,40.91
2023-03-29T06:39:56.734Z,40.82
2023-03-29T06:40:56.793Z,40.86
2023-03-29T06:41:56.831Z,40.99
2023-03-29T06:42:56.885Z,41.40
2023-03-29T06:43:56.883Z,41.33
2023-03-29T06:44:56.921Z,41.35
2023-03-29T06:45:56.973Z,41.46
2023-03-29T06:46:56.984Z,41.55
2023-03-29T06:47:57.001Z,41.62
2023-03-29T06:48:57.011Z,41.72
2023-03-29T06:49:57.023Z,41.83
2023-03-29T06:50:57.043Z,42.03
2023-03-29T06:51:57.055Z,42.21
2023-03-29T06:52:57.062Z,42.31
2023-03-29T06:53:57.068Z,42.47
2023-03-29T06:54:57.061Z,42.60
2023-03-29T06:55:57.077Z,42.65
2023-03-29T06:56:57.085Z,42.95
2023-03-29T06:57:57.068Z,42.98
2023-03-29T06:58:57.079Z,43.11
2023-03-29T06:59:57.072Z,43.18
2023-03-29T07:00:57.072Z,43.24
2023-03-29T07:01:57.211Z,43.36
2023-03-29T07:02:57.184Z,43.46
2023-03-29T07:03:57.098Z,43.63
2023-03-29T07:04:57.064Z,43.75
2023-03-29T07:05:57.879Z,43.87
2023-03-29T07:06:57.079Z,44.02
2023-03-29T07:07:57.201Z,44.11
2023-03-29T07:08:57.882Z,44.22
2023-03-29T07:09:57.152Z,44.36
2023-03-29T07:10:57.154Z,44.37
2023-03-29T07:11:57.192Z,44.47
2023-03-29T07:12:57.232Z,44.61
2023-03-29T07:13:57.268Z,44.84
2023-03-29T07:14:57.295Z,45.05
2023-03-29T07:15:57.314Z,45.22
2023-03-29T07:16:57.510Z,45.16
2023-03-29T07:17:57.437Z,45.06
2023-03-29T07:18:57.348Z,45.18
2023-03-29T07:19:57.343Z,45.37
2023-03-29T07:20:57.408Z,45.39
2023-03-29T07:21:57.349Z,45.52
2023-03-29T07:22:57.349Z,45.54
2023-03-29T07:23:57.365Z,45.60
2023-03-29T07:24:57.372Z,45.54
2023-03-29T07:25:57.388Z,45.47
2023-03-29T07:27:04.077Z,45.44
2023-03-29T07:27:58.446Z,45.41
2023-03-29T07:28:57.400Z,45.46
2023-03-29T07:29:57.462Z,45.42
2023-03-29T07:30:57.401Z,45.45
2023-03-29T07:31:57.397Z,45.46
2023-03-29T07:32:57.503Z,45.42
2023-03-29T07:33:57.495Z,45.40
2023-03-29T07:34:57.465Z,45.35
2023-03-29T07:35:57.443Z,45.32
2023-03-29T07:36:57.894Z,45.30
2023-03-29T07:37:57.374Z,45.30
2023-03-29T07:38:57.376Z,45.33
2023-03-29T07:39:57.375Z,45.33
2023-03-29T07:40:57.375Z,45.29
2023-03-29T07:41:57.380Z,45.24
2023-03-29T07:42:57.442Z,45.25
2023-03-29T07:43:57.461Z,45.20
2023-03-29T07:44:57.514Z,45.14
2023-03-29T07:45:57.598Z,45.08
2023-03-29T07:46:57.627Z,45.10
2023-03-29T07:47:57.825Z,45.07
2023-03-29T07:48:57.744Z,45.08
2023-03-29T07:49:57.792Z,45.01
2023-03-29T07:50:57.858Z,44.99
2023-03-29T07:51:57.923Z,44.94
2023-03-29T07:52:57.976Z,44.91
2023-03-29T07:53:58.053Z,44.88
2023-03-29T07:54:58.114Z,44.83
2023-03-29T07:55:58.197Z,44.87
2023-03-29T07:56:58.392Z,44.76
2023-03-29T07:57:58.309Z,44.70
2023-03-29T07:58:58.454Z,44.69
2023-03-29T07:59:58.452Z,44.65
2023-03-29T08:00:58.561Z,44.61
2023-03-29T08:01:58.585Z,44.56
2023-03-29T08:02:58.693Z,44.47
2023-03-29T08:03:58.853Z,44.36
2023-03-29T08:04:58.899Z,44.25
2023-03-29T08:05:58.872Z,44.28
2023-03-29T08:06:58.952Z,44.32
2023-03-29T08:07:59.024Z,44.31
2023-03-29T08:08:59.081Z,44.26
2023-03-29T08:09:59.146Z,44.27
2023-03-29T08:10:59.228Z,44.20
2023-03-29T08:11:59.273Z,44.23
2023-03-29T08:12:59.350Z,44.22
2023-03-29T08:13:59.430Z,44.19
2023-03-29T08:14:59.492Z,44.09
2023-03-29T08:15:59.575Z,44.20
2023-03-29T08:16:59.651Z,44.18
2023-03-29T08:17:59.938Z,44.21
2023-03-29T08:18:59.777Z,44.18
2023-03-29T08:19:59.840Z,44.15
2023-03-29T08:21:00.011Z,44.17
2023-03-29T08:21:59.995Z,44.17
2023-03-29T08:23:00.040Z,44.04
2023-03-29T08:24:00.132Z,43.98
2023-03-29T08:25:00.172Z,43.92
2023-03-29T08:26:00.182Z,43.89
2023-03-29T08:27:00.218Z,43.84
2023-03-29T08:28:00.284Z,43.85
2023-03-29T08:29:00.341Z,43.87
2023-03-29T08:30:00.394Z,43.74
2023-03-29T08:31:00.680Z,43.72
2023-03-29T08:32:00.520Z,43.75
2023-03-29T08:33:00.594Z,43.77
2023-03-29T08:34:00.584Z,43.74
2023-03-29T08:35:00.598Z,43.74
2023-03-29T08:36:00.649Z,43.68
2023-03-29T08:37:00.711Z,43.61
2023-03-29T08:38:00.639Z,43.64
2023-03-29T08:39:00.647Z,43.63
2023-03-29T08:40:00.700Z,43.63
2023-03-29T08:41:00.913Z,43.58
2023-03-29T08:42:00.753Z,43.56
2023-03-29T08:43:00.742Z,43.55
2023-03-29T08:44:00.753Z,43.51
2023-03-29T08:45:01.833Z,43.49
2023-03-29T08:46:00.855Z,43.52
2023-03-29T08:47:00.839Z,43.45
2023-03-29T08:48:00.855Z,43.37
2023-03-29T08:49:00.826Z,43.36
2023-03-29T08:50:00.846Z,43.26
2023-03-29T08:51:01.032Z,43.24
2023-03-29T08:52:01.835Z,43.24
2023-03-29T08:53:00.898Z,43.20
2023-03-29T08:54:00.905Z,43.19
2023-03-29T08:55:00.935Z,43.16
2023-03-29T08:56:00.944Z,43.11
2023-03-29T08:57:00.989Z,43.05
2023-03-29T08:58:00.997Z,43.06
2023-03-29T08:59:00.962Z,43.09
2023-03-29T09:00:01.209Z,43.07
2023-03-29T09:01:01.360Z,43.08
2023-03-29T09:02:01.066Z,43.04
2023-03-29T09:03:01.092Z,42.98
2023-03-29T09:04:01.064Z,42.99
2023-03-29T09:05:01.921Z,42.98
2023-03-29T09:06:00.988Z,42.93
2023-03-29T09:07:00.993Z,42.85
2023-03-29T09:08:01.000Z,42.83
2023-03-29T09:09:00.991Z,42.86
2023-03-29T09:10:00.986Z,42.85
2023-03-29T09:11:01.149Z,42.75
2023-03-29T09:12:01.002Z,42.71
2023-03-29T09:13:01.032Z,42.67
2023-03-29T09:14:01.046Z,42.64
2023-03-29T09:15:01.206Z,42.61
2023-03-29T09:16:01.050Z,42.62
2023-03-29T09:17:01.015Z,42.62
2023-03-29T09:18:01.469Z,42.59
2023-03-29T09:19:01.029Z,42.56
2023-03-29T09:20:01.037Z,42.51
2023-03-29T09:21:01.343Z,42.57
2023-03-29T09:22:01.046Z,42.55
2023-03-29T09:23:01.055Z,42.52
2023-03-29T09:24:01.063Z,42.52
2023-03-29T09:25:01.098Z,42.53
2023-03-29T09:26:01.100Z,42.50
2023-03-29T09:27:01.101Z,42.46
2023-03-29T09:28:01.125Z,42.43
2023-03-29T09:29:01.128Z,42.40
2023-03-29T09:30:01.175Z,42.45
2023-03-29T09:31:01.265Z,42.41
2023-03-29T09:32:01.190Z,42.43
2023-03-29T09:33:01.179Z,42.37
2023-03-29T09:34:01.135Z,42.35
2023-03-29T09:35:01.209Z,42.34
2023-03-29T09:36:01.905Z,42.39
2023-03-29T09:37:01.167Z,42.38
2023-03-29T09:38:01.196Z,42.35
2023-03-29T09:39:01.198Z,42.35
2023-03-29T09:40:02.070Z,42.29
2023-03-29T09:41:01.653Z,42.27
2023-03-29T09:42:01.401Z,42.29
2023-03-29T09:43:01.442Z,42.30
2023-03-29T09:44:01.478Z,42.31
2023-03-29T09:45:01.432Z,42.29
2023-03-29T09:46:01.531Z,42.26
2023-03-29T09:47:01.445Z,42.20
2023-03-29T09:48:01.493Z,42.21
2023-03-29T09:49:01.514Z,42.24
2023-03-29T09:50:01.539Z,42.22
2023-03-29T09:51:01.615Z,42.18
2023-03-29T09:52:01.527Z,42.18
2023-03-29T09:53:01.550Z,42.15
2023-03-29T09:54:01.529Z,42.16
2023-03-29T09:55:01.524Z,42.18
2023-03-29T09:56:01.554Z,42.12
2023-03-29T09:57:01.634Z,42.09
2023-03-29T09:58:01.583Z,42.07
2023-03-29T09:59:01.569Z,42.08
2023-03-29T10:00:02.443Z,42.06
2023-03-29T10:01:01.802Z,42.07
2023-03-29T10:02:01.594Z,42.02
2023-03-29T10:03:01.637Z,42.02
2023-03-29T10:04:01.641Z,42.03
2023-03-29T10:05:01.717Z,42.02
2023-03-29T10:06:01.659Z,42.05
2023-03-29T10:07:01.648Z,42.02
2023-03-29T10:08:01.651Z,41.99
2023-03-29T10:09:01.660Z,41.99
2023-03-29T10:10:01.667Z,42.01
2023-03-29T10:11:01.900Z,41.97
2023-03-29T10:12:01.690Z,41.98
2023-03-29T10:13:01.699Z,41.96
2023-03-29T10:14:01.701Z,41.99
2023-03-29T10:15:01.778Z,41.99
2023-03-29T10:16:01.795Z,41.92
2023-03-29T10:17:01.816Z,41.85
2023-03-29T10:18:01.810Z,41.85
2023-03-29T10:19:01.769Z,41.84
2023-03-29T10:20:03.970Z,41.85
2023-03-29T10:21:02.210Z,41.83
2023-03-29T10:22:02.000Z,41.81
2023-03-29T10:23:02.023Z,41.79
2023-03-29T10:24:02.070Z,41.73
2023-03-29T10:25:02.053Z,41.75
2023-03-29T10:26:03.006Z,41.76
2023-03-29T10:27:02.088Z,41.73
2023-03-29T10:28:02.092Z,41.71
2023-03-29T10:29:02.110Z,41.70
2023-03-29T10:30:02.119Z,41.69
2023-03-29T10:31:02.406Z,41.57
2023-03-29T10:32:02.241Z,41.58
2023-03-29T10:33:02.190Z,41.49
2023-03-29T10:34:02.162Z,41.49
2023-03-29T10:35:02.177Z,41.53
2023-03-29T10:36:02.201Z,41.53
2023-03-29T10:37:02.203Z,41.47
2023-03-29T10:38:02.200Z,41.46
2023-03-29T10:39:04.302Z,41.46
2023-03-29T10:40:02.220Z,41.47
2023-03-29T10:41:02.372Z,41.46
2023-03-29T10:42:02.297Z,41.45
2023-03-29T10:43:02.202Z,41.39
2023-03-29T10:44:02.209Z,41.40
2023-03-29T10:45:02.209Z,41.38
2023-03-29T10:46:02.226Z,41.37
2023-03-29T10:47:02.217Z,41.31
2023-03-29T10:48:02.288Z,41.32
2023-03-29T10:49:02.218Z,41.27
2023-03-29T10:50:02.226Z,41.26
2023-03-29T10:51:02.432Z,41.27
2023-03-29T10:52:02.226Z,41.22
2023-03-29T10:53:02.219Z,41.22
2023-03-29T10:54:02.222Z,41.22
2023-03-29T10:55:02.226Z,41.22
2023-03-29T10:56:02.226Z,41.22
2023-03-29T10:57:02.252Z,41.22
2023-03-29T10:58:02.237Z,41.09
2023-03-29T10:59:02.232Z,40.98
2023-03-29T11:00:02.233Z,40.98
2023-03-29T11:01:02.419Z,41.05
2023-03-29T11:02:02.404Z,41.11
2023-03-29T11:03:02.345Z,41.10
2023-03-29T11:04:02.434Z,41.10
2023-03-29T11:05:02.273Z,41.05
2023-03-29T11:06:02.259Z,41.07
2023-03-29T11:07:02.283Z,41.04
2023-03-29T11:08:02.268Z,40.98
2023-03-29T11:09:02.344Z,40.93
2023-03-29T11:10:02.341Z,40.94
2023-03-29T11:11:02.562Z,40.90
2023-03-29T11:12:15.151Z,40.94
2023-03-29T11:13:03.307Z,40.89
2023-03-29T11:14:02.308Z,40.90
2023-03-29T11:15:02.313Z,40.87
2023-03-29T11:16:02.328Z,40.77
2023-03-29T11:17:02.317Z,40.82
2023-03-29T11:18:02.339Z,40.84
2023-03-29T11:19:02.324Z,40.80
2023-03-29T11:20:04.919Z,40.78
2023-03-29T11:21:02.395Z,40.82
2023-03-29T11:22:02.335Z,40.80
2023-03-29T11:23:02.325Z,40.72
2023-03-29T11:24:02.319Z,40.70
2023-03-29T11:25:02.337Z,40.63
2023-03-29T11:26:02.329Z,40.71
2023-03-29T11:27:02.338Z,40.69
2023-03-29T11:28:02.341Z,40.73
2023-03-29T11:29:02.357Z,40.65
2023-03-29T11:30:02.423Z,40.64
2023-03-29T11:31:02.736Z,40.67
2023-03-29T11:32:02.398Z,40.64
2023-03-29T11:33:02.379Z,40.58
2023-03-29T11:34:02.366Z,40.63
2023-03-29T11:35:02.395Z,40.65
2023-03-29T11:36:02.458Z,40.64
2023-03-29T11:37:02.384Z,40.60
2023-03-29T11:38:02.378Z,40.58
2023-03-29T11:39:02.384Z,40.64
2023-03-29T11:40:02.387Z,40.66
2023-03-29T11:41:02.768Z,40.61
2023-03-29T11:42:02.416Z,40.61
2023-03-29T11:43:02.422Z,40.64
2023-03-29T11:44:02.409Z,40.64
2023-03-29T11:45:02.420Z,40.61
2023-03-29T11:46:02.427Z,40.63
2023-03-29T11:47:02.453Z,40.64
2023-03-29T11:48:02.480Z,40.63
2023-03-29T11:49:02.418Z,40.65
2023-03-29T11:50:02.507Z,40.61
2023-03-29T11:51:02.525Z,40.59
2023-03-29T11:52:02.428Z,40.58
2023-03-29T11:53:02.421Z,40.56
2023-03-29T11:54:02.424Z,40.56
2023-03-29T11:55:02.429Z,40.58
2023-03-29T11:56:02.436Z,40.58
2023-03-29T11:57:02.467Z,40.52
2023-03-29T11:58:02.438Z,40.44
2023-03-29T11:59:02.450Z,40.41
2023-03-29T12:00:02.454Z,40.46
2023-03-29T12:01:02.723Z,40.47
2023-03-29T12:02:02.477Z,40.44
2023-03-29T12:03:02.524Z,40.36
2023-03-29T12:04:02.586Z,40.32
2023-03-29T12:05:02.477Z,40.28
2023-03-29T12:06:02.514Z,40.29
2023-03-29T12:07:02.484Z,40.25
2023-03-29T12:08:02.498Z,40.22
2023-03-29T12:09:02.503Z,40.25
2023-03-29T12:10:02.516Z,40.30
2023-03-29T12:11:02.710Z,40.22
2023-03-29T12:12:02.537Z,40.20
2023-03-29T12:13:02.552Z,40.16
2023-03-29T12:14:02.549Z,40.11
2023-03-29T12:15:02.574Z,40.05
2023-03-29T12:16:02.643Z,40.02
2023-03-29T12:17:02.671Z,40.04
2023-03-29T12:18:02.626Z,40.05
2023-03-29T12:19:02.578Z,40.01
2023-03-29T12:20:02.590Z,40.03
2023-03-29T12:21:02.590Z,40.00
2023-03-29T12:22:02.588Z,39.96
2023-03-29T12:23:02.607Z,39.97
2023-03-29T12:24:02.605Z,39.91
2023-03-29T12:25:02.609Z,39.92
2023-03-29T12:26:02.615Z,39.92
2023-03-29T12:27:02.622Z,39.95
2023-03-29T12:28:02.641Z,39.93
2023-03-29T12:29:02.636Z,39.84
2023-03-29T12:30:02.736Z,39.82
2023-03-29T12:31:02.856Z,39.80
2023-03-29T12:32:02.732Z,39.79
2023-03-29T12:33:02.751Z,39.87
2023-03-29T12:34:02.704Z,39.85
2023-03-29T12:35:02.745Z,39.89
2023-03-29T12:36:02.769Z,39.88
2023-03-29T12:37:02.725Z,39.84
2023-03-29T12:38:02.741Z,39.79
2023-03-29T12:39:02.770Z,39.77
2023-03-29T12:40:02.763Z,39.78
2023-03-29T12:41:03.040Z,39.76
2023-03-29T12:42:02.770Z,39.71
2023-03-29T12:43:02.797Z,39.70
2023-03-29T12:44:02.766Z,39.72
2023-03-29T12:45:02.809Z,39.68
2023-03-29T12:46:02.956Z,39.64
2023-03-29T12:47:03.496Z,39.66
2023-03-29T12:48:02.846Z,39.67
2023-03-29T12:49:02.833Z,39.64
2023-03-29T12:50:02.855Z,39.62
2023-03-29T12:51:02.865Z,39.62
2023-03-29T12:52:02.854Z,39.59
2023-03-29T12:53:02.868Z,39.53